Time;durP1;ratioP1;P1;durP2;ratioP2;P2;SDS_P1;SDS_P2;PMS_P1;PMS_P2;Temp;Humidity;BMP_temperature;BMP_pressure;BME280_temperature;BME280_humidity;BME280_pressure;Samples;Min_cycle;Max_cycle;Signal;HPM_P1;HPM_P2
2022/10/10 00:01:27;;;;;;;28.80;17.57;;;;;;;14.11;100.00;100103.34;5133497;27;20201;-53
2022/10/10 00:03:54;;;;;;;25.20;18.33;;;;;;;14.00;100.00;100098.47;5133430;27;20567;-54
2022/10/10 00:06:22;;;;;;;31.43;18.70;;;;;;;14.00;100.00;100105.44;5133227;27;20281;-52
2022/10/10 00:08:49;;;;;;;24.93;16.80;;;;;;;14.03;100.00;100111.44;5133384;27;20282;-57
2022/10/10 00:11:20;;;;;;;24.00;16.07;;;;;;;14.08;100.00;100113.91;5133459;27;20202;-53
2022/10/10 00:13:48;;;;;;;25.77;15.73;;;;;;;14.12;100.00;100120.72;5133202;27;20297;-52
2022/10/10 00:16:16;;;;;;;20.73;15.10;;;;;;;14.11;100.00;100116.38;5132026;27;20220;-51
2022/10/10 00:18:43;;;;;;;23.87;16.20;;;;;;;14.13;100.00;100125.03;5133029;27;20202;-52
2022/10/10 00:21:10;;;;;;;20.20;14.73;;;;;;;14.07;100.00;100114.81;5133181;27;20206;-53
2022/10/10 00:23:37;;;;;;;17.97;14.27;;;;;;;13.99;100.00;100122.03;5133327;27;20221;-52
2022/10/10 00:26:05;;;;;;;20.03;14.03;;;;;;;13.95;100.00;100128.25;5132850;27;20193;-58
2022/10/10 00:28:37;;;;;;;23.53;13.40;;;;;;;13.92;100.00;100134.41;5132836;27;20194;-58
2022/10/10 00:31:04;;;;;;;24.57;14.90;;;;;;;13.93;100.00;100137.88;5132763;27;20206;-59
2022/10/10 00:33:31;;;;;;;26.77;13.60;;;;;;;13.82;100.00;100135.63;5133093;27;20553;-59
2022/10/10 00:35:58;;;;;;;22.43;14.50;;;;;;;13.77;100.00;100129.69;5132574;27;20228;-58
2022/10/10 00:38:25;;;;;;;23.43;14.97;;;;;;;13.69;100.00;100134.31;5132906;27;20585;-58
2022/10/10 00:40:54;;;;;;;18.67;14.60;;;;;;;13.55;100.00;100139.09;5132640;27;20190;-58
2022/10/10 00:43:22;;;;;;;21.47;14.40;;;;;;;13.40;100.00;100120.44;5132635;27;20198;-57
2022/10/10 00:45:51;;;;;;;23.33;15.07;;;;;;;13.44;100.00;100136.81;5132442;27;20681;-51
2022/10/10 00:48:21;;;;;;;17.87;14.60;;;;;;;13.43;100.00;100141.19;5132604;27;20198;-57
2022/10/10 00:50:52;;;;;;;22.17;14.50;;;;;;;13.46;100.00;100127.19;5132511;27;20200;-58
2022/10/10 00:53:23;;;;;;;20.30;14.47;;;;;;;13.50;100.00;100147.06;5132652;27;20208;-59
2022/10/10 00:55:51;;;;;;;19.07;14.70;;;;;;;13.41;100.00;100143.00;5132138;27;20224;-52
2022/10/10 00:58:19;;;;;;;22.17;15.03;;;;;;;13.32;100.00;100147.63;5132266;27;20218;-52
2022/10/10 01:00:46;;;;;;;24.83;15.90;;;;;;;13.20;100.00;100138.44;5132616;27;20249;-59
2022/10/10 01:03:14;;;;;;;18.53;15.03;;;;;;;13.16;100.00;100122.91;5132637;27;20204;-52
2022/10/10 01:05:43;;;;;;;33.20;15.63;;;;;;;13.16;100.00;100135.94;5132297;27;20194;-53
2022/10/10 01:08:10;;;;;;;19.73;14.97;;;;;;;13.19;100.00;100139.31;5132429;27;20587;-53
2022/10/10 01:10:50;;;;;;;29.00;16.47;;;;;;;13.15;100.00;100136.84;5132353;27;20204;-59
2022/10/10 01:13:26;;;;;;;23.77;14.37;;;;;;;12.93;100.00;100124.41;5132383;27;20189;-57
2022/10/10 01:15:59;;;;;;;25.00;15.77;;;;;;;13.02;100.00;100133.69;5131911;27;20254;-58
2022/10/10 01:18:35;;;;;;;20.17;15.47;;;;;;;12.96;100.00;100137.34;5132054;27;20284;-58
2022/10/10 01:21:23;;;;;;;23.27;14.57;;;;;;;13.06;100.00;100143.16;5131973;27;20281;-53
2022/10/10 01:24:29;;;;;;;24.77;15.77;;;;;;;13.14;100.00;100150.75;5131882;27;20706;-59
2022/10/10 01:27:29;;;;;;;24.53;15.30;;;;;;;13.10;100.00;100147.34;5131857;27;20648;-59
2022/10/10 01:30:02;;;;;;;22.07;15.57;;;;;;;13.08;100.00;100155.25;5048151;28;20613;-52
2022/10/10 01:32:35;;;;;;;20.97;15.23;;;;;;;13.16;100.00;100146.38;5116846;27;20205;-58
2022/10/10 01:35:20;;;;;;;24.40;14.33;;;;;;;13.16;100.00;100136.81;5131608;27;20197;-57
2022/10/10 01:37:52;;;;;;;23.57;15.43;;;;;;;13.26;100.00;100147.81;5131679;27;20308;-59
2022/10/10 01:40:27;;;;;;;20.13;15.47;;;;;;;13.26;100.00;100151.28;5131700;27;20225;-52
2022/10/10 01:42:56;;;;;;;22.33;14.53;;;;;;;13.29;100.00;100152.94;5131435;27;20189;-59
2022/10/10 01:45:25;;;;;;;23.73;15.20;;;;;;;13.31;100.00;100154.63;5130905;27;20190;-57
2022/10/10 01:47:55;;;;;;;16.17;13.77;;;;;;;13.39;100.00;100164.81;5131310;27;20200;-52
2022/10/10 01:50:24;;;;;;;25.13;14.97;;;;;;;13.40;100.00;100167.38;5131295;27;20228;-53
2022/10/10 01:53:00;;;;;;;19.07;14.53;;;;;;;13.44;100.00;100160.28;5131411;27;20193;-57
2022/10/10 01:55:43;;;;;;;20.80;14.53;;;;;;;13.50;100.00;100161.88;5131343;27;20288;-57
2022/10/10 01:58:37;;;;;;;23.13;14.70;;;;;;;13.52;100.00;100171.38;5131177;27;20204;-52
2022/10/10 02:01:16;;;;;;;16.53;14.53;;;;;;;13.48;100.00;100174.94;5130863;27;20639;-56
2022/10/10 02:03:47;;;;;;;20.27;15.07;;;;;;;13.50;100.00;100177.53;5131199;27;20197;-52
2022/10/10 02:06:21;;;;;;;17.83;13.93;;;;;;;13.53;100.00;100172.22;5131210;27;20193;-57
2022/10/10 02:08:53;;;;;;;22.67;14.87;;;;;;;13.56;100.00;100183.38;5131501;27;20200;-52
2022/10/10 02:11:20;;;;;;;20.83;14.80;;;;;;;13.50;100.00;100173.16;5131141;27;20224;-52
2022/10/10 02:13:49;;;;;;;20.43;15.30;;;;;;;13.47;100.00;100188.88;5131224;27;20288;-52
2022/10/10 02:16:22;;;;;;;26.73;16.40;;;;;;;13.14;100.00;100140.31;5130751;27;20217;-52
2022/10/10 02:18:51;;;;;;;19.03;15.17;;;;;;;13.28;100.00;100192.94;5131008;27;20202;-52
2022/10/10 02:21:19;;;;;;;22.60;15.33;;;;;;;13.17;100.00;100188.03;5131314;27;20194;-52
2022/10/10 02:23:50;;;;;;;23.20;16.57;;;;;;;13.16;100.00;100183.72;5130560;27;20240;-52
2022/10/10 02:26:18;;;;;;;19.00;15.83;;;;;;;13.07;100.00;100165.72;5130869;27;20277;-52
2022/10/10 02:28:53;;;;;;;19.43;15.80;;;;;;;13.22;100.00;100174.84;5130464;27;20228;-51
2022/10/10 02:31:27;;;;;;;20.23;15.57;;;;;;;13.24;100.00;100184.34;5130961;27;20197;-53
2022/10/10 02:33:58;;;;;;;24.27;16.60;;;;;;;13.32;100.00;100184.13;5130447;27;20371;-52
2022/10/10 02:36:27;;;;;;;21.80;15.67;;;;;;;13.31;100.00;100188.50;5130367;27;20236;-52
2022/10/10 02:38:55;;;;;;;25.13;16.37;;;;;;;13.36;100.00;100190.97;5130607;27;20277;-53
2022/10/10 02:41:23;;;;;;;21.77;16.67;;;;;;;13.31;100.00;100182.44;5130658;27;20276;-52
2022/10/10 02:43:52;;;;;;;25.43;16.60;;;;;;;13.32;100.00;100179.75;5130449;27;20198;-52
2022/10/10 02:46:19;;;;;;;23.10;16.67;;;;;;;13.35;100.00;100189.25;5130410;27;20201;-51
2022/10/10 02:48:47;;;;;;;23.97;17.53;;;;;;;13.22;100.00;100193.09;5130305;27;20200;-53
2022/10/10 02:51:16;;;;;;;40.40;17.47;;;;;;;13.23;100.00;100194.81;5130379;27;20194;-58
2022/10/10 02:53:43;;;;;;;20.93;16.33;;;;;;;13.26;100.00;100199.94;5130433;27;20200;-58
2022/10/10 02:56:10;;;;;;;26.50;17.30;;;;;;;13.24;100.00;100193.91;5130227;27;20228;-59
2022/10/10 02:58:38;;;;;;;20.23;16.53;;;;;;;13.20;100.00;100195.78;5129350;27;20200;-58
2022/10/10 03:01:05;;;;;;;27.90;17.40;;;;;;;13.10;100.00;100205.56;5130666;27;20288;-58
2022/10/10 03:03:32;;;;;;;22.50;16.87;;;;;;;13.08;100.00;100204.78;5130217;28;20204;-59
2022/10/10 03:06:01;;;;;;;22.77;18.30;;;;;;;13.05;100.00;100207.44;5130040;28;20229;-58
2022/10/10 03:08:28;;;;;;;22.37;17.63;;;;;;;13.08;100.00;100216.94;5129962;28;20273;-59
2022/10/10 03:10:56;;;;;;;23.63;18.43;;;;;;;13.05;100.00;100211.81;5130018;28;20288;-59
2022/10/10 03:13:24;;;;;;;27.93;17.43;;;;;;;12.91;100.00;100201.75;5130267;28;20579;-58
2022/10/10 03:15:51;;;;;;;26.13;18.33;;;;;;;12.82;100.00;100215.03;5129832;28;20202;-59
2022/10/10 03:18:18;;;;;;;24.73;17.07;;;;;;;12.63;100.00;100204.25;5130063;28;20304;-51
2022/10/10 03:20:45;;;;;;;23.20;17.53;;;;;;;12.71;100.00;100217.94;5129968;28;20197;-58
2022/10/10 03:23:14;;;;;;;30.50;18.67;;;;;;;12.69;100.00;100218.84;5129811;28;20189;-59
2022/10/10 03:25:42;;;;;;;19.93;17.27;;;;;;;12.55;100.00;100207.94;5130123;28;20194;-58
2022/10/10 03:28:09;;;;;;;33.87;18.77;;;;;;;12.57;100.00;100219.19;5129991;28;20542;-58
2022/10/10 03:30:36;;;;;;;30.70;19.63;;;;;;;12.50;100.00;100222.84;5129634;28;20230;-60
2022/10/10 03:33:03;;;;;;;23.93;19.00;;;;;;;12.28;100.00;100186.94;5130002;28;20200;-58
2022/10/10 03:35:30;;;;;;;28.57;19.43;;;;;;;12.31;100.00;100192.03;5129904;28;20190;-59
2022/10/10 03:37:58;;;;;;;31.77;20.13;;;;;;;12.52;100.00;100221.91;5129893;28;20302;-59
2022/10/10 03:40:28;;;;;;;30.03;19.20;;;;;;;12.51;100.00;100212.38;5130114;28;20224;-58
2022/10/10 03:42:55;;;;;;;34.47;19.50;;;;;;;12.51;100.00;100214.13;5129786;28;20220;-58
2022/10/10 03:45:22;;;;;;;28.13;19.93;;;;;;;12.46;100.00;100227.25;5129749;28;20236;-59
2022/10/10 03:47:48;;;;;;;29.30;19.33;;;;;;;12.44;100.00;100217.78;5129854;28;20293;-59
2022/10/10 03:50:16;;;;;;;26.77;19.63;;;;;;;12.50;100.00;100222.84;5129725;28;20194;-53
2022/10/10 03:52:42;;;;;;;29.23;20.07;;;;;;;12.52;100.00;100221.06;5129796;28;20198;-58
2022/10/10 03:55:09;;;;;;;27.47;17.90;;;;;;;12.51;100.00;100215.00;5129522;28;20202;-59
2022/10/10 03:57:38;;;;;;;28.13;18.13;;;;;;;12.53;100.00;100228.81;5129412;28;20228;-59
2022/10/10 04:00:05;;;;;;;26.70;18.00;;;;;;;12.61;100.00;100228.63;5128205;28;20198;-58
2022/10/10 04:02:33;;;;;;;26.43;17.37;;;;;;;12.64;100.00;100205.13;5128238;28;20302;-58
2022/10/10 04:05:00;;;;;;;25.60;17.10;;;;;;;12.67;100.00;100210.22;5128445;28;20194;-59
2022/10/10 04:07:27;;;;;;;27.83;17.67;;;;;;;12.75;100.00;100223.94;5128531;28;20734;-61
2022/10/10 04:09:54;;;;;;;21.10;16.30;;;;;;;12.69;100.00;100213.66;5130931;27;20630;-59
2022/10/10 04:12:21;;;;;;;27.40;16.17;;;;;;;12.86;100.00;100228.84;5131792;27;20193;-59
2022/10/10 04:14:49;;;;;;;25.83;18.13;;;;;;;12.80;100.00;100226.38;5131927;27;20194;-59
2022/10/10 04:17:16;;;;;;;27.57;16.90;;;;;;;12.71;100.00;100230.97;5132378;27;20222;-58
2022/10/10 04:19:43;;;;;;;27.47;16.83;;;;;;;12.69;100.00;100240.56;5132404;27;20202;-58
2022/10/10 04:22:10;;;;;;;20.07;16.00;;;;;;;12.53;100.00;100221.00;5132254;27;20733;-59
2022/10/10 04:24:37;;;;;;;21.83;16.57;;;;;;;12.60;100.00;100240.78;5132228;27;20233;-53
2022/10/10 04:27:04;;;;;;;36.77;17.70;;;;;;;12.55;100.00;100237.44;5132009;27;20186;-52
2022/10/10 04:29:31;;;;;;;26.23;17.83;;;;;;;12.50;100.00;100230.66;5132790;27;20226;-49
2022/10/10 04:31:59;;;;;;;25.00;17.70;;;;;;;12.56;100.00;100238.28;5132857;27;20658;-52
2022/10/10 04:34:27;;;;;;;31.53;17.30;;;;;;;12.59;100.00;100233.88;5130932;27;20198;-52
2022/10/10 04:36:54;;;;;;;27.30;16.80;;;;;;;12.59;100.00;100241.69;5131918;27;20642;-52
2022/10/10 04:39:22;;;;;;;22.30;16.23;;;;;;;12.37;100.00;100206.66;5132457;27;20703;-52
2022/10/10 04:41:49;;;;;;;30.63;17.80;;;;;;;12.58;100.00;100246.94;5132612;27;20194;-52
2022/10/10 04:44:16;;;;;;;31.13;17.63;;;;;;;12.50;100.00;100241.06;5132831;27;20577;-53
2022/10/10 04:46:43;;;;;;;26.10;17.10;;;;;;;12.45;100.00;100250.72;5131164;27;20624;-58
2022/10/10 04:49:11;;;;;;;30.77;17.47;;;;;;;12.44;100.00;100243.81;5130939;27;20206;-52
2022/10/10 04:51:38;;;;;;;44.43;18.10;;;;;;;12.43;100.00;100255.97;5130949;27;20194;-58
2022/10/10 04:54:05;;;;;;;58.57;18.57;;;;;;;12.47;100.00;100252.41;5130925;27;20193;-58
2022/10/10 04:56:32;;;;;;;33.80;15.87;;;;;;;12.39;100.00;100240.47;5131369;27;20222;-58
2022/10/10 04:58:59;;;;;;;24.90;15.47;;;;;;;12.49;100.00;100263.66;5131256;27;20839;-58
2022/10/10 05:01:26;;;;;;;30.57;15.70;;;;;;;12.56;100.00;100265.19;5131665;27;20276;-58
2022/10/10 05:03:54;;;;;;;27.93;14.90;;;;;;;12.66;100.00;100266.66;5132138;27;20200;-59
2022/10/10 05:06:23;;;;;;;40.90;16.27;;;;;;;12.66;100.00;100268.41;5132088;27;20198;-59
2022/10/10 05:08:50;;;;;;;51.97;16.50;;;;;;;12.84;100.00;100274.94;5132259;27;20194;-58
2022/10/10 05:11:16;;;;;;;27.17;14.90;;;;;;;12.99;100.00;100277.97;5132184;27;20196;-59
2022/10/10 05:13:43;;;;;;;22.53;13.23;;;;;;;13.21;100.00;100275.66;5132205;27;20662;-51
2022/10/10 05:16:10;;;;;;;21.93;14.47;;;;;;;13.43;100.00;100286.38;5131868;27;20709;-52
2022/10/10 05:18:37;;;;;;;25.47;15.30;;;;;;;14.06;100.00;100288.00;5132044;27;20229;-52
2022/10/10 05:21:06;;;;;;;22.67;15.13;;;;;;;15.12;100.00;100283.66;5130885;27;20677;-52
2022/10/10 05:23:35;;;;;;;24.93;14.87;;;;;;;16.47;90.33;100293.38;5131858;27;20194;-51
2022/10/10 05:26:02;;;;;;;27.03;14.90;;;;;;;18.05;81.23;100291.72;5131913;27;20198;-54
2022/10/10 05:28:29;;;;;;;20.80;14.57;;;;;;;19.27;71.93;100301.44;5131897;27;20678;-54
2022/10/10 05:30:56;;;;;;;22.97;13.93;;;;;;;19.54;68.82;100308.75;5131630;27;20281;-53
2022/10/10 05:33:23;;;;;;;30.63;15.75;;;;;;;20.49;64.41;100314.13;5131517;27;20308;-52
2022/10/10 05:35:49;;;;;;;24.00;13.57;;;;;;;21.58;59.67;100323.44;5131575;27;20237;-52
2022/10/10 05:38:16;;;;;;;23.52;13.40;;;;;;;22.45;55.99;100321.47;5131620;27;20218;-59
2022/10/10 05:40:45;;;;;;;24.85;14.05;;;;;;;23.42;52.21;100329.97;5131773;27;20715;-58
2022/10/10 05:43:11;;;;;;;24.52;13.15;;;;;;;24.32;49.26;100334.22;5131418;27;20196;-58
2022/10/10 05:45:38;;;;;;;21.90;12.57;;;;;;;24.90;46.66;100335.22;5131563;27;20590;-53
2022/10/10 05:48:05;;;;;;;19.25;11.88;;;;;;;25.58;44.32;100340.59;5131140;27;20582;-53
2022/10/10 05:50:34;;;;;;;12.48;11.25;;;;;;;25.99;43.44;100339.16;5131738;27;20204;-53
2022/10/10 05:53:01;;;;;;;17.02;11.77;;;;;;;26.39;42.07;100312.88;5131591;27;20194;-54
2022/10/10 05:55:28;;;;;;;18.67;11.02;;;;;;;26.75;40.88;100332.94;5131247;27;20691;-53
2022/10/10 05:57:57;;;;;;;15.18;11.57;;;;;;;26.96;40.13;100349.88;5131103;27;20226;-53
2022/10/10 06:00:24;;;;;;;17.38;11.30;;;;;;;27.65;38.25;100354.69;5131134;27;20198;-59
2022/10/10 06:02:51;;;;;;;14.30;11.40;;;;;;;27.75;38.14;100352.91;5130945;27;20594;-54
2022/10/10 06:05:18;;;;;;;19.63;12.25;;;;;;;28.00;37.97;100362.25;5131117;27;20197;-53
2022/10/10 06:07:45;;;;;;;21.33;12.27;;;;;;;28.64;36.53;100364.56;5131001;27;20198;-58
2022/10/10 06:10:11;;;;;;;13.82;12.45;;;;;;;28.81;36.12;100364.75;5130475;27;20208;-59
2022/10/10 06:12:38;;;;;;;21.58;13.20;;;;;;;29.34;35.49;100363.44;5130077;27;20194;-59
2022/10/10 06:15:08;;;;;;;28.27;13.45;;;;;;;29.67;34.87;100368.31;5129891;27;20390;-59
2022/10/10 06:17:35;;;;;;;22.75;13.20;;;;;;;29.61;34.82;100372.41;5130381;27;20312;-59
2022/10/10 06:20:02;;;;;;;20.20;12.38;;;;;;;29.51;34.80;100366.25;5131045;27;20281;-60
2022/10/10 06:22:29;;;;;;;22.48;14.98;;;;;;;29.54;34.77;100363.28;5130872;27;20986;-59
2022/10/10 06:24:56;;;;;;;22.88;14.18;;;;;;;29.93;33.86;100360.44;5130645;27;20200;-59
2022/10/10 06:27:23;;;;;;;30.73;16.33;;;;;;;30.18;33.60;100367.00;5130582;27;20190;-58
2022/10/10 06:29:50;;;;;;;32.00;15.10;;;;;;;29.95;33.56;100366.50;5130399;27;20721;-59
2022/10/10 06:32:18;;;;;;;32.67;16.60;;;;;;;30.05;33.98;100370.00;5130540;27;20216;-58
2022/10/10 06:34:45;;;;;;;28.77;17.50;;;;;;;30.49;33.04;100362.13;5130561;27;20206;-59
2022/10/10 06:37:12;;;;;;;31.73;16.85;;;;;;;30.91;32.60;100360.59;5128834;27;20205;-58
2022/10/10 06:39:39;;;;;;;23.17;15.82;;;;;;;32.11;30.51;100374.16;5129066;27;20200;-59
2022/10/10 06:42:06;;;;;;;43.30;18.88;;;;;;;32.49;30.62;100366.59;5129027;27;20200;-58
2022/10/10 06:44:33;;;;;;;36.67;17.77;;;;;;;32.67;29.82;100370.00;5130012;27;20576;-59
2022/10/10 06:47:00;;;;;;;34.28;16.77;;;;;;;32.95;29.05;100376.78;5130174;27;20198;-58
2022/10/10 06:49:29;;;;;;;24.05;14.63;;;;;;;32.30;29.33;100376.59;5130214;27;20186;-59
2022/10/10 06:51:56;;;;;;;27.40;13.98;;;;;;;30.92;31.39;100374.84;5130306;27;20637;-59
2022/10/10 06:54:23;;;;;;;31.33;15.52;;;;;;;28.52;34.69;100355.84;5130264;27;20605;-59
2022/10/10 06:56:49;;;;;;;29.00;13.88;;;;;;;27.05;37.20;100353.56;5129530;27;20204;-58
2022/10/10 06:59:16;;;;;;;27.95;14.85;;;;;;;26.30;39.15;100358.88;5130108;27;20229;-59
2022/10/10 07:01:43;;;;;;;37.55;18.50;;;;;;;24.92;42.19;100362.50;5130286;27;20209;-59
2022/10/10 07:04:12;;;;;;;33.40;19.40;;;;;;;23.87;45.54;100354.25;5130070;27;20209;-59
2022/10/10 07:06:40;;;;;;;42.90;21.33;;;;;;;23.04;48.96;100356.38;5130142;27;20292;-59
2022/10/10 07:09:07;;;;;;;50.22;24.02;;;;;;;22.63;51.17;100355.59;5130092;27;20194;-53
2022/10/10 07:11:34;;;;;;;47.10;20.90;;;;;;;21.87;53.64;100363.09;5130248;28;20198;-53
2022/10/10 07:14:01;;;;;;;30.00;19.90;;;;;;;21.76;54.44;100357.63;5130120;28;20577;-54
2022/10/10 07:16:28;;;;;;;44.17;20.13;;;;;;;21.43;55.18;100348.19;5128922;28;20189;-53
2022/10/10 07:18:55;;;;;;;36.35;18.83;;;;;;;21.27;56.10;100366.72;5129693;28;20249;-54
2022/10/10 07:21:22;;;;;;;35.00;17.20;;;;;;;21.02;57.01;100343.53;5129865;28;20193;-57
2022/10/10 07:23:50;;;;;;;30.40;17.55;;;;;;;20.62;58.86;100362.59;5129931;28;20201;-53
2022/10/10 07:26:21;;;;;;;25.50;16.17;;;;;;;20.58;59.45;100363.69;5129949;28;20285;-53
2022/10/10 07:28:48;;;;;;;36.28;17.17;;;;;;;20.63;59.80;100359.03;5130009;28;20685;-53
2022/10/10 07:31:15;;;;;;;29.15;15.65;;;;;;;20.57;60.04;100362.00;5129904;28;20200;-53
2022/10/10 07:33:45;;;;;;;31.65;15.38;;;;;;;20.42;60.83;100363.72;5130070;28;20194;-52
2022/10/10 07:36:12;;;;;;;30.15;15.20;;;;;;;20.49;61.18;100361.59;5129683;28;20193;-54
2022/10/10 07:38:39;;;;;;;24.33;15.15;;;;;;;20.44;61.54;100368.91;5130155;28;20277;-52
2022/10/10 07:41:09;;;;;;;21.17;14.40;;;;;;;20.50;61.51;100365.94;5129939;28;20198;-54
2022/10/10 07:43:36;;;;;;;20.05;12.38;;;;;;;20.39;61.74;100366.53;5130697;27;20202;-53
2022/10/10 07:46:03;;;;;;;15.50;11.27;;;;;;;20.02;63.53;100362.38;5133776;27;20209;-58
2022/10/10 07:48:31;;;;;;;17.40;12.57;;;;;;;19.77;65.19;100362.00;5133973;27;20198;-59
2022/10/10 07:50:58;;;;;;;18.08;11.93;;;;;;;19.69;65.70;100357.16;5133653;27;20678;-59
2022/10/10 07:53:25;;;;;;;16.98;12.35;;;;;;;19.60;66.65;100359.41;5133935;27;20589;-58
2022/10/10 07:55:52;;;;;;;14.93;11.77;;;;;;;19.40;67.85;100363.06;5132212;27;20194;-60
2022/10/10 07:58:20;;;;;;;12.60;11.30;;;;;;;19.47;67.40;100349.50;5132157;27;20633;-59
2022/10/10 08:00:47;;;;;;;13.98;12.35;;;;;;;19.57;67.82;100355.16;5132854;27;20198;-59
2022/10/10 08:03:14;;;;;;;13.93;12.38;;;;;;;19.50;68.35;100357.28;5132648;27;20200;-59
2022/10/10 08:05:42;;;;;;;13.85;11.75;;;;;;;19.72;68.29;100361.41;5133578;27;20650;-52
2022/10/10 08:08:11;;;;;;;14.30;12.77;;;;;;;19.74;67.84;100363.03;5133366;27;20239;-52
2022/10/10 08:10:38;;;;;;;14.00;12.55;;;;;;;19.70;68.43;100360.63;5133786;27;20189;-53
2022/10/10 08:13:05;;;;;;;14.95;13.30;;;;;;;19.69;68.79;100353.66;5133321;27;20220;-53
2022/10/10 08:15:33;;;;;;;15.90;13.73;;;;;;;19.87;67.78;100365.84;5133066;27;20707;-59
2022/10/10 08:18:00;;;;;;;15.40;12.65;;;;;;;19.78;68.07;100342.63;5132785;27;20226;-53
2022/10/10 08:20:27;;;;;;;15.73;13.68;;;;;;;19.93;67.82;100357.63;5133108;27;20277;-53
2022/10/10 08:22:54;;;;;;;15.18;13.63;;;;;;;19.86;68.03;100357.09;5132588;27;20208;-53
2022/10/10 08:25:21;;;;;;;14.73;13.35;;;;;;;19.87;68.17;100352.66;5131750;27;20190;-53
2022/10/10 08:27:48;;;;;;;19.65;13.90;;;;;;;19.81;68.64;100347.75;5131560;27;20182;-52
2022/10/10 08:30:15;;;;;;;17.23;13.90;;;;;;;19.85;68.54;100355.41;5131237;27;20228;-52
2022/10/10 08:32:43;;;;;;;24.08;14.35;;;;;;;19.75;68.62;100350.72;5131653;27;20601;-53
2022/10/10 08:35:10;;;;;;;21.73;14.02;;;;;;;19.79;69.29;100353.09;5131821;27;20666;-59
2022/10/10 08:37:37;;;;;;;16.02;12.93;;;;;;;19.86;69.12;100351.00;5133117;27;20604;-59
2022/10/10 08:40:04;;;;;;;18.90;13.65;;;;;;;19.81;69.70;100342.47;5132734;27;20732;-58
2022/10/10 08:42:36;;;;;;;14.48;12.90;;;;;;;19.94;69.05;100349.63;5132757;27;20197;-59
2022/10/10 08:45:10;;;;;;;15.43;13.82;;;;;;;20.01;69.13;100344.03;5132412;27;20289;-53
2022/10/10 08:47:42;;;;;;;22.80;12.80;;;;;;;20.25;69.40;100343.53;5132707;27;20190;-58
2022/10/10 08:50:17;;;;;;;17.65;13.07;;;;;;;20.36;67.55;100339.47;5132639;27;20198;-54
2022/10/10 08:52:50;;;;;;;18.23;12.02;;;;;;;20.37;66.64;100344.66;5132882;27;20589;-52
2022/10/10 08:55:20;;;;;;;17.05;11.63;;;;;;;20.34;66.63;100342.16;5131221;27;20193;-52
2022/10/10 08:57:51;;;;;;;11.52;10.20;;;;;;;20.26;66.04;100345.22;5131763;27;20670;-55
2022/10/10 09:00:21;;;;;;;14.27;9.93;;;;;;;20.25;65.45;100332.97;5132108;27;20208;-53
2022/10/10 09:02:50;;;;;;;12.15;10.18;;;;;;;20.43;64.80;100340.84;5131927;27;20197;-52
2022/10/10 09:05:21;;;;;;;13.65;10.90;;;;;;;20.48;65.05;100339.63;5132643;27;20197;-54
2022/10/10 09:08:09;;;;;;;13.18;10.93;;;;;;;20.54;64.52;100334.00;5132310;27;20186;-54
2022/10/10 09:10:43;;;;;;;10.85;9.82;;;;;;;20.67;63.53;100336.78;5116001;27;20205;-60
2022/10/10 09:13:23;;;;;;;11.93;9.30;;;;;;;20.79;63.44;100333.44;5132146;27;20221;-58
2022/10/10 09:15:55;;;;;;;17.17;8.55;;;;;;;20.85;62.41;100332.25;5131020;27;20194;-59
2022/10/10 09:18:38;;;;;;;16.00;9.05;;;;;;;20.99;60.43;100330.50;5131990;27;20230;-59
2022/10/10 09:21:15;;;;;;;12.57;8.75;;;;;;;20.99;60.83;100333.13;5131934;27;20212;-59
2022/10/10 09:23:47;;;;;;;15.23;9.27;;;;;;;20.95;61.07;100333.41;5132511;27;20197;-59
2022/10/10 09:26:16;;;;;;;12.05;9.43;;;;;;;21.03;60.70;100310.91;5131888;27;20197;-59
2022/10/10 09:28:50;;;;;;;10.50;8.80;;;;;;;21.34;59.50;100320.50;5132136;27;20230;-59
2022/10/10 09:31:22;;;;;;;11.80;8.93;;;;;;;21.44;59.13;100315.53;5131995;27;20231;-53
2022/10/10 09:33:55;;;;;;;15.30;8.15;;;;;;;21.57;57.94;100326.19;5132022;27;20582;-53
2022/10/10 09:36:31;;;;;;;16.33;8.85;;;;;;;21.67;57.64;100320.22;5131867;27;20201;-53
2022/10/10 09:39:02;;;;;;;10.10;7.70;;;;;;;21.81;56.85;100318.53;5128468;27;20227;-52
2022/10/10 09:41:35;;;;;;;8.80;8.02;;;;;;;21.56;57.39;100316.56;5131548;27;20524;-53
2022/10/10 09:44:07;;;;;;;9.95;8.85;;;;;;;21.51;58.21;100308.94;5131782;27;20201;-53
2022/10/10 09:46:33;;;;;;;9.95;8.55;;;;;;;21.66;58.08;100307.16;5131757;27;20198;-58
2022/10/10 09:49:00;;;;;;;19.73;8.30;;;;;;;21.85;57.32;100305.03;5131528;27;20196;-59
2022/10/10 09:51:32;;;;;;;14.10;7.50;;;;;;;22.00;55.56;100305.91;5131555;27;20697;-59
2022/10/10 09:53:59;;;;;;;10.15;8.18;;;;;;;21.78;55.50;100268.53;5131111;27;20208;-59
2022/10/10 09:56:30;;;;;;;9.45;8.35;;;;;;;22.07;55.92;100299.28;5131315;27;20201;-59
2022/10/10 09:58:58;;;;;;;10.30;8.63;;;;;;;21.95;56.48;100303.50;5131135;27;20235;-59
2022/10/10 10:01:27;;;;;;;12.63;9.32;;;;;;;21.92;56.88;100300.22;5131215;27;20210;-59
2022/10/10 10:04:12;;;;;;;11.48;8.93;;;;;;;22.09;56.78;100286.81;5131047;27;20201;-58
2022/10/10 10:06:44;;;;;;;9.23;8.30;;;;;;;22.13;55.66;100282.16;5130917;27;20269;-59
2022/10/10 10:09:18;;;;;;;15.82;8.43;;;;;;;22.20;54.90;100292.25;5130493;27;20197;-59
2022/10/10 10:11:47;;;;;;;8.30;7.38;;;;;;;22.16;55.18;100292.53;5131482;27;20581;-59
2022/10/10 10:14:25;;;;;;;10.23;7.53;;;;;;;22.01;55.21;100291.72;5131080;27;20483;-59
2022/10/10 10:16:54;;;;;;;10.32;7.30;;;;;;;22.01;55.80;100292.56;5130858;27;20190;-59
2022/10/10 10:19:33;;;;;;;9.07;8.38;;;;;;;21.94;56.09;100285.09;5131056;27;20326;-58
2022/10/10 10:22:01;;;;;;;12.93;8.13;;;;;;;21.94;55.84;100287.75;5130983;27;20193;-58
2022/10/10 10:24:35;;;;;;;9.40;8.13;;;;;;;21.74;56.00;100287.22;5131176;27;20204;-60
2022/10/10 10:27:18;;;;;;;9.27;8.52;;;;;;;21.88;55.89;100283.72;5130827;27;20194;-60
2022/10/10 10:29:48;;;;;;;14.00;7.88;;;;;;;22.05;55.34;100285.31;5130552;27;20317;-53
2022/10/10 10:32:23;;;;;;;11.10;7.97;;;;;;;22.19;54.40;100277.34;5130513;27;20707;-52
2022/10/10 10:35:09;;;;;;;8.40;7.47;;;;;;;22.26;53.89;100268.06;5127724;27;20209;-52
2022/10/10 10:37:50;;;;;;;11.68;8.00;;;;;;;22.23;54.01;100267.41;5127853;27;20622;-53
2022/10/10 10:40:33;;;;;;;8.93;8.02;;;;;;;22.34;53.54;100265.78;5127947;27;20209;-53
2022/10/10 10:43:28;;;;;;;13.65;8.10;;;;;;;22.33;53.46;100258.78;5127130;27;20197;-59
2022/10/10 10:46:05;;;;;;;15.55;8.30;;;;;;;22.33;53.73;100250.84;5127725;27;20282;-58
2022/10/10 10:48:40;;;;;;;12.70;7.88;;;;;;;22.48;53.15;100256.91;5128507;27;20204;-60
2022/10/10 10:51:19;;;;;;;12.43;8.43;;;;;;;22.49;53.32;100260.41;5125887;27;20186;-59
2022/10/10 10:53:54;;;;;;;13.20;8.63;;;;;;;22.42;53.39;100249.38;5127482;27;20190;-59
2022/10/10 10:56:30;;;;;;;8.25;7.57;;;;;;;22.48;52.68;100246.31;5124755;27;20197;-59
2022/10/10 10:59:15;;;;;;;13.73;7.80;;;;;;;22.62;53.04;100258.66;5127288;27;20213;-59
2022/10/10 11:01:47;;;;;;;16.55;7.63;;;;;;;22.60;52.15;100250.81;5127829;27;20636;-59
2022/10/10 11:04:27;;;;;;;11.75;8.10;;;;;;;22.74;52.22;100247.25;5127604;27;21120;-59
2022/10/10 11:07:06;;;;;;;10.60;8.75;;;;;;;22.87;51.71;100242.84;5126484;27;20193;-60
2022/10/10 11:09:39;;;;;;;11.38;8.77;;;;;;;22.83;51.73;100238.69;5127807;27;20587;-59
2022/10/10 11:12:18;;;;;;;14.57;9.05;;;;;;;22.60;52.06;100226.13;5128169;27;20198;-60
2022/10/10 11:14:53;;;;;;;11.90;8.70;;;;;;;22.57;52.04;100232.50;5126824;28;20197;-59
2022/10/10 11:17:28;;;;;;;13.50;10.50;;;;;;;22.55;52.59;100233.56;5128718;28;20193;-59
2022/10/10 11:20:00;;;;;;;14.30;9.68;;;;;;;22.44;52.80;100229.84;5131564;27;20655;-59